Hlavní strana
METAR-TAF:

METAR-TAF

Letiště :

San José, Kostarika

zeměpisná šířka: 10-00N, zeměpisná délka: 084-13W, výška: 920 m

Aktuální stav počasí

Zpráva byla vytvořena před 43 minutami, v 16:00 UTC
Východojihovýchodní vítr 13 kt
Teplota 24°C
Vlhkost vzduchu 69%
Tlak 1016 hPa
Viditelnost 10 km a více
Skoro jasno ve výšce 3000 ft
Polojasno ve výšce 10000 ft
Oblačno až skoro zataženo ve výšce 20000 ft

METAR: MROC 181600Z 11013KT 9999 FEW030 SCT100 BKN200 24/18 A3001 NOSIG

Čas: 10:43 (16:43 UTC)

Předpověď počasí

Zpráva byla vytvořena před 5 hodinami a 43 minutami, v 11:00 UTC
Předpověď platná od 18 v 12 UTC do 19 v 12 UTC
Východojihovýchodní vítr 10 kt
Viditelnost 10 km a více
Skoro jasno ve výšce 3500 ft
Dočasný
od 18 v 12 UTC do 18 v 18 UTC
Východní vítr 13 kt s nárazy do 23 kt

TAF: MROC 181100Z 1812/1912 11010KT 9999 FEW035 TX30/1819Z TN20/1910Z TEMPO 1812/1818 10013G23KT

Stav a předpovědi počasí z více než 4 000 letišť (zprávy METAR a TAF).

Červené a žluté tečky na mapě představují dostupné meteorologické stanice.

Když kurzor umístíte na tečku, zobrazí se název stanice.

Pak kliknutím zobrazíte stav a předpověď počasí.

Chcete-li změnit mapu, kliknutím na zelené tlačítko se znaménkem +mapu přiblížíte, kliknutím na zelené tlačítko se znaménkem – mapu oddálíte a kliknutím na zelené šipky přejdete na sousední mapy.


METAR-TAF: